sensor_id;sensor_type;location;lat;lon;timestamp;P1;durP1;ratioP1;P2;durP2;ratioP2
50737;SDS011;36703;48.154;17.126;2024-03-23T00:52:05;27.55;;;17.63;;
50737;SDS011;36703;48.154;17.126;2024-03-23T00:56:07;32.75;;;17.60;;
50737;SDS011;36703;48.154;17.126;2024-03-23T01:00:09;24.88;;;15.23;;
50737;SDS011;36703;48.154;17.126;2024-03-23T01:04:11;26.08;;;16.02;;
50737;SDS011;36703;48.154;17.126;2024-03-23T01:08:13;30.17;;;16.58;;
50737;SDS011;36703;48.154;17.126;2024-03-23T01:12:14;30.90;;;16.55;;
50737;SDS011;36703;48.154;17.126;2024-03-23T01:16:16;30.42;;;17.55;;
50737;SDS011;36703;48.154;17.126;2024-03-23T01:20:17;29.30;;;16.13;;
50737;SDS011;36703;48.154;17.126;2024-03-23T01:24:19;31.42;;;16.83;;
50737;SDS011;36703;48.154;17.126;2024-03-23T01:28:21;29.45;;;17.23;;
50737;SDS011;36703;48.154;17.126;2024-03-23T01:32:22;28.67;;;17.02;;
50737;SDS011;36703;48.154;17.126;2024-03-23T01:36:24;26.73;;;16.48;;
50737;SDS011;36703;48.154;17.126;2024-03-23T01:40:25;27.95;;;16.83;;
50737;SDS011;36703;48.154;17.126;2024-03-23T01:44:28;24.08;;;15.70;;
50737;SDS011;36703;48.154;17.126;2024-03-23T01:48:29;27.67;;;16.27;;
50737;SDS011;36703;48.154;17.126;2024-03-23T01:52:31;29.52;;;16.17;;
50737;SDS011;36703;48.154;17.126;2024-03-23T01:56:33;29.35;;;16.45;;
50737;SDS011;36703;48.154;17.126;2024-03-23T02:00:36;30.15;;;16.83;;
50737;SDS011;36703;48.154;17.126;2024-03-23T02:04:38;29.23;;;14.95;;
50737;SDS011;36703;48.154;17.126;2024-03-23T02:08:39;27.13;;;14.25;;
50737;SDS011;36703;48.154;17.126;2024-03-23T02:12:41;24.58;;;14.48;;
50737;SDS011;36703;48.154;17.126;2024-03-23T02:16:43;27.73;;;15.63;;
50737;SDS011;36703;48.154;17.126;2024-03-23T02:20:44;21.88;;;13.35;;
50737;SDS011;36703;48.154;17.126;2024-03-23T02:24:46;24.85;;;13.32;;
50737;SDS011;36703;48.154;17.126;2024-03-23T02:28:47;23.20;;;12.90;;
50737;SDS011;36703;48.154;17.126;2024-03-23T02:32:49;26.13;;;15.52;;
50737;SDS011;36703;48.154;17.126;2024-03-23T02:36:50;24.98;;;15.35;;
50737;SDS011;36703;48.154;17.126;2024-03-23T02:40:52;22.58;;;12.90;;
50737;SDS011;36703;48.154;17.126;2024-03-23T02:44:54;20.30;;;12.50;;
50737;SDS011;36703;48.154;17.126;2024-03-23T02:48:55;23.70;;;14.00;;
50737;SDS011;36703;48.154;17.126;2024-03-23T02:52:57;21.65;;;14.07;;
50737;SDS011;36703;48.154;17.126;2024-03-23T02:56:59;22.38;;;13.80;;
50737;SDS011;36703;48.154;17.126;2024-03-23T03:01:00;26.50;;;15.35;;
50737;SDS011;36703;48.154;17.126;2024-03-23T03:05:02;27.20;;;15.45;;
50737;SDS011;36703;48.154;17.126;2024-03-23T03:09:05;29.33;;;16.88;;
50737;SDS011;36703;48.154;17.126;2024-03-23T03:13:07;30.33;;;16.92;;
50737;SDS011;36703;48.154;17.126;2024-03-23T03:17:09;27.50;;;16.25;;
50737;SDS011;36703;48.154;17.126;2024-03-23T03:21:10;30.02;;;17.00;;
50737;SDS011;36703;48.154;17.126;2024-03-23T03:25:12;28.00;;;16.75;;
50737;SDS011;36703;48.154;17.126;2024-03-23T03:29:13;27.40;;;15.95;;
50737;SDS011;36703;48.154;17.126;2024-03-23T03:33:15;23.92;;;14.38;;
50737;SDS011;36703;48.154;17.126;2024-03-23T03:37:17;26.20;;;15.63;;
50737;SDS011;36703;48.154;17.126;2024-03-23T03:41:19;30.17;;;16.27;;
50737;SDS011;36703;48.154;17.126;2024-03-23T03:45:20;27.73;;;15.73;;
50737;SDS011;36703;48.154;17.126;2024-03-23T03:49:22;24.23;;;15.38;;
50737;SDS011;36703;48.154;17.126;2024-03-23T03:53:23;25.85;;;14.75;;
50737;SDS011;36703;48.154;17.126;2024-03-23T03:57:25;23.80;;;14.23;;
50737;SDS011;36703;48.154;17.126;2024-03-23T04:01:26;25.92;;;15.18;;
50737;SDS011;36703;48.154;17.126;2024-03-23T04:05:28;25.90;;;14.80;;
50737;SDS011;36703;48.154;17.126;2024-03-23T04:09:29;26.13;;;15.45;;
50737;SDS011;36703;48.154;17.126;2024-03-23T04:13:31;26.75;;;16.42;;
50737;SDS011;36703;48.154;17.126;2024-03-23T04:17:33;28.58;;;16.25;;
50737;SDS011;36703;48.154;17.126;2024-03-23T04:21:35;30.80;;;17.33;;
50737;SDS011;36703;48.154;17.126;2024-03-23T04:25:38;31.70;;;17.98;;
50737;SDS011;36703;48.154;17.126;2024-03-23T04:29:40;36.72;;;18.83;;
50737;SDS011;36703;48.154;17.126;2024-03-23T04:33:41;33.50;;;18.95;;
50737;SDS011;36703;48.154;17.126;2024-03-23T04:37:43;33.55;;;19.08;;
50737;SDS011;36703;48.154;17.126;2024-03-23T04:41:44;37.17;;;19.35;;
50737;SDS011;36703;48.154;17.126;2024-03-23T04:45:46;34.05;;;19.17;;
50737;SDS011;36703;48.154;17.126;2024-03-23T04:49:47;37.38;;;20.08;;
50737;SDS011;36703;48.154;17.126;2024-03-23T04:53:50;35.47;;;19.88;;
50737;SDS011;36703;48.154;17.126;2024-03-23T04:57:52;32.60;;;18.08;;
50737;SDS011;36703;48.154;17.126;2024-03-23T05:01:54;26.95;;;15.18;;
50737;SDS011;36703;48.154;17.126;2024-03-23T05:05:55;25.17;;;14.32;;
50737;SDS011;36703;48.154;17.126;2024-03-23T05:09:57;23.60;;;13.90;;
50737;SDS011;36703;48.154;17.126;2024-03-23T05:13:58;23.35;;;14.00;;
50737;SDS011;36703;48.154;17.126;2024-03-23T05:18:01;23.85;;;13.98;;
50737;SDS011;36703;48.154;17.126;2024-03-23T05:22:02;25.33;;;15.10;;
50737;SDS011;36703;48.154;17.126;2024-03-23T05:26:04;24.05;;;14.77;;
50737;SDS011;36703;48.154;17.126;2024-03-23T05:30:06;30.88;;;16.40;;
50737;SDS011;36703;48.154;17.126;2024-03-23T05:34:08;29.77;;;17.10;;
50737;SDS011;36703;48.154;17.126;2024-03-23T05:38:10;29.33;;;17.27;;
50737;SDS011;36703;48.154;17.126;2024-03-23T05:42:11;35.75;;;17.50;;
50737;SDS011;36703;48.154;17.126;2024-03-23T05:46:13;25.98;;;16.55;;
50737;SDS011;36703;48.154;17.126;2024-03-23T05:50:14;29.70;;;16.05;;
50737;SDS011;36703;48.154;17.126;2024-03-23T05:54:16;25.73;;;16.15;;
50737;SDS011;36703;48.154;17.126;2024-03-23T05:58:18;28.02;;;15.25;;
50737;SDS011;36703;48.154;17.126;2024-03-23T06:02:20;26.30;;;14.52;;
50737;SDS011;36703;48.154;17.126;2024-03-23T06:06:23;35.22;;;19.35;;
50737;SDS011;36703;48.154;17.126;2024-03-23T06:10:25;26.83;;;15.25;;
50737;SDS011;36703;48.154;17.126;2024-03-23T06:14:26;25.40;;;14.98;;
50737;SDS011;36703;48.154;17.126;2024-03-23T06:18:28;28.02;;;15.63;;
50737;SDS011;36703;48.154;17.126;2024-03-23T06:22:30;26.08;;;15.25;;
50737;SDS011;36703;48.154;17.126;2024-03-23T06:26:31;27.63;;;14.93;;
50737;SDS011;36703;48.154;17.126;2024-03-23T06:30:33;27.08;;;16.05;;
50737;SDS011;36703;48.154;17.126;2024-03-23T06:34:34;23.08;;;15.02;;
50737;SDS011;36703;48.154;17.126;2024-03-23T06:38:36;27.38;;;15.55;;
50737;SDS011;36703;48.154;17.126;2024-03-23T06:42:41;28.00;;;16.52;;
50737;SDS011;36703;48.154;17.126;2024-03-23T06:46:42;31.63;;;17.30;;
50737;SDS011;36703;48.154;17.126;2024-03-23T06:50:44;35.47;;;19.27;;
50737;SDS011;36703;48.154;17.126;2024-03-23T06:54:47;29.25;;;18.70;;
50737;SDS011;36703;48.154;17.126;2024-03-23T06:58:48;30.77;;;18.38;;
50737;SDS011;36703;48.154;17.126;2024-03-23T07:02:50;30.90;;;17.00;;
50737;SDS011;36703;48.154;17.126;2024-03-23T07:06:52;31.35;;;18.25;;
50737;SDS011;36703;48.154;17.126;2024-03-23T07:10:53;38.30;;;23.85;;
50737;SDS011;36703;48.154;17.126;2024-03-23T07:14:55;28.40;;;17.02;;
50737;SDS011;36703;48.154;17.126;2024-03-23T07:18:57;29.60;;;17.42;;
50737;SDS011;36703;48.154;17.126;2024-03-23T07:22:58;30.10;;;16.77;;
50737;SDS011;36703;48.154;17.126;2024-03-23T07:27:00;26.70;;;15.90;;
50737;SDS011;36703;48.154;17.126;2024-03-23T07:31:06;25.05;;;15.77;;
50737;SDS011;36703;48.154;17.126;2024-03-23T07:35:13;26.92;;;15.65;;
50737;SDS011;36703;48.154;17.126;2024-03-23T07:39:15;26.20;;;15.48;;
50737;SDS011;36703;48.154;17.126;2024-03-23T07:43:16;49.95;;;29.58;;
50737;SDS011;36703;48.154;17.126;2024-03-23T07:47:18;42.70;;;26.08;;
50737;SDS011;36703;48.154;17.126;2024-03-23T07:51:20;22.75;;;15.45;;
50737;SDS011;36703;48.154;17.126;2024-03-23T07:55:23;22.85;;;14.77;;
50737;SDS011;36703;48.154;17.126;2024-03-23T07:59:25;24.92;;;14.93;;
50737;SDS011;36703;48.154;17.126;2024-03-23T08:03:26;25.38;;;15.02;;
50737;SDS011;36703;48.154;17.126;2024-03-23T08:07:28;23.42;;;14.65;;
50737;SDS011;36703;48.154;17.126;2024-03-23T08:11:30;24.58;;;15.40;;
50737;SDS011;36703;48.154;17.126;2024-03-23T08:15:35;21.73;;;14.43;;
50737;SDS011;36703;48.154;17.126;2024-03-23T08:19:38;25.00;;;15.48;;
50737;SDS011;36703;48.154;17.126;2024-03-23T08:23:40;24.20;;;14.40;;
50737;SDS011;36703;48.154;17.126;2024-03-23T08:27:41;28.73;;;14.48;;
50737;SDS011;36703;48.154;17.126;2024-03-23T08:31:45;23.38;;;14.07;;
50737;SDS011;36703;48.154;17.126;2024-03-23T08:36:00;26.70;;;14.10;;
50737;SDS011;36703;48.154;17.126;2024-03-23T08:40:06;21.45;;;12.75;;
50737;SDS011;36703;48.154;17.126;2024-03-23T08:44:09;23.33;;;14.52;;
50737;SDS011;36703;48.154;17.126;2024-03-23T08:48:10;42.92;;;29.58;;
50737;SDS011;36703;48.154;17.126;2024-03-23T08:52:14;53.13;;;26.20;;
50737;SDS011;36703;48.154;17.126;2024-03-23T08:56:16;30.23;;;20.20;;
50737;SDS011;36703;48.154;17.126;2024-03-23T09:00:18;20.40;;;13.73;;
50737;SDS011;36703;48.154;17.126;2024-03-23T09:04:19;19.35;;;12.90;;
50737;SDS011;36703;48.154;17.126;2024-03-23T09:08:22;19.50;;;13.13;;
50737;SDS011;36703;48.154;17.126;2024-03-23T09:12:23;17.50;;;12.70;;
50737;SDS011;36703;48.154;17.126;2024-03-23T09:16:25;20.63;;;11.88;;
50737;SDS011;36703;48.154;17.126;2024-03-23T09:20:27;19.38;;;12.80;;
50737;SDS011;36703;48.154;17.126;2024-03-23T09:24:29;16.33;;;11.50;;
50737;SDS011;36703;48.154;17.126;2024-03-23T09:28:30;16.90;;;11.43;;
50737;SDS011;36703;48.154;17.126;2024-03-23T09:32:32;17.33;;;11.23;;
50737;SDS011;36703;48.154;17.126;2024-03-23T09:36:33;15.80;;;10.32;;
50737;SDS011;36703;48.154;17.126;2024-03-23T09:40:40;17.58;;;9.77;;
50737;SDS011;36703;48.154;17.126;2024-03-23T09:44:44;15.20;;;9.63;;
50737;SDS011;36703;48.154;17.126;2024-03-23T09:48:46;14.70;;;9.10;;
50737;SDS011;36703;48.154;17.126;2024-03-23T09:52:48;10.98;;;7.65;;
50737;SDS011;36703;48.154;17.126;2024-03-23T09:56:50;11.18;;;7.97;;
50737;SDS011;36703;48.154;17.126;2024-03-23T10:00:51;13.45;;;8.15;;
50737;SDS011;36703;48.154;17.126;2024-03-23T10:04:53;33.90;;;24.05;;
50737;SDS011;36703;48.154;17.126;2024-03-23T10:08:54;12.73;;;8.27;;
50737;SDS011;36703;48.154;17.126;2024-03-23T10:12:56;11.10;;;7.32;;
50737;SDS011;36703;48.154;17.126;2024-03-23T10:17:06;9.43;;;7.72;;
50737;SDS011;36703;48.154;17.126;2024-03-23T10:21:26;9.00;;;6.75;;
50737;SDS011;36703;48.154;17.126;2024-03-23T10:25:27;7.93;;;6.70;;
50737;SDS011;36703;48.154;17.126;2024-03-23T10:29:29;8.20;;;6.55;;
50737;SDS011;36703;48.154;17.126;2024-03-23T10:33:31;7.97;;;6.07;;
50737;SDS011;36703;48.154;17.126;2024-03-23T10:37:33;9.07;;;6.13;;
50737;SDS011;36703;48.154;17.126;2024-03-23T10:41:34;10.75;;;7.18;;
50737;SDS011;36703;48.154;17.126;2024-03-23T10:45:37;9.80;;;6.60;;
50737;SDS011;36703;48.154;17.126;2024-03-23T10:49:38;8.43;;;6.07;;
50737;SDS011;36703;48.154;17.126;2024-03-23T10:53:40;11.23;;;6.80;;
50737;SDS011;36703;48.154;17.126;2024-03-23T10:57:51;10.93;;;6.70;;
50737;SDS011;36703;48.154;17.126;2024-03-23T11:01:59;10.70;;;6.90;;
50737;SDS011;36703;48.154;17.126;2024-03-23T11:06:04;11.98;;;6.43;;
50737;SDS011;36703;48.154;17.126;2024-03-23T11:10:24;12.63;;;6.72;;
50737;SDS011;36703;48.154;17.126;2024-03-23T11:14:25;11.98;;;6.93;;
50737;SDS011;36703;48.154;17.126;2024-03-23T11:18:27;8.73;;;6.97;;
50737;SDS011;36703;48.154;17.126;2024-03-23T11:26:48;10.07;;;7.28;;
50737;SDS011;36703;48.154;17.126;2024-03-23T11:30:50;11.38;;;6.93;;
50737;SDS011;36703;48.154;17.126;2024-03-23T11:34:51;9.20;;;6.88;;
50737;SDS011;36703;48.154;17.126;2024-03-23T11:38:53;9.68;;;6.80;;
50737;SDS011;36703;48.154;17.126;2024-03-23T11:42:55;9.27;;;6.80;;
50737;SDS011;36703;48.154;17.126;2024-03-23T11:47:08;16.30;;;6.85;;
50737;SDS011;36703;48.154;17.126;2024-03-23T11:51:11;8.70;;;5.70;;
50737;SDS011;36703;48.154;17.126;2024-03-23T11:55:13;6.70;;;5.80;;
50737;SDS011;36703;48.154;17.126;2024-03-23T11:59:29;9.52;;;6.35;;
50737;SDS011;36703;48.154;17.126;2024-03-23T12:03:43;8.85;;;5.72;;
50737;SDS011;36703;48.154;17.126;2024-03-23T12:07:45;7.53;;;6.18;;
50737;SDS011;36703;48.154;17.126;2024-03-23T12:11:47;8.02;;;5.80;;
50737;SDS011;36703;48.154;17.126;2024-03-23T12:15:51;7.03;;;5.85;;
50737;SDS011;36703;48.154;17.126;2024-03-23T12:19:53;7.47;;;5.75;;
50737;SDS011;36703;48.154;17.126;2024-03-23T12:23:54;12.10;;;6.00;;
50737;SDS011;36703;48.154;17.126;2024-03-23T12:27:58;14.32;;;5.32;;
50737;SDS011;36703;48.154;17.126;2024-03-23T12:32:00;8.27;;;5.55;;
50737;SDS011;36703;48.154;17.126;2024-03-23T12:36:03;5.72;;;4.95;;
50737;SDS011;36703;48.154;17.126;2024-03-23T12:40:05;6.05;;;4.70;;
50737;SDS011;36703;48.154;17.126;2024-03-23T12:44:08;5.97;;;5.38;;
50737;SDS011;36703;48.154;17.126;2024-03-23T12:48:12;7.55;;;5.28;;
50737;SDS011;36703;48.154;17.126;2024-03-23T12:52:14;5.03;;;4.55;;
50737;SDS011;36703;48.154;17.126;2024-03-23T12:56:15;10.10;;;4.70;;
50737;SDS011;36703;48.154;17.126;2024-03-23T13:00:17;10.45;;;4.50;;
50737;SDS011;36703;48.154;17.126;2024-03-23T13:04:18;7.00;;;4.03;;
50737;SDS011;36703;48.154;17.126;2024-03-23T13:08:20;5.53;;;4.47;;
50737;SDS011;36703;48.154;17.126;2024-03-23T13:12:22;8.48;;;4.00;;
50737;SDS011;36703;48.154;17.126;2024-03-23T13:16:24;6.45;;;3.38;;
50737;SDS011;36703;48.154;17.126;2024-03-23T13:20:25;6.82;;;3.35;;
50737;SDS011;36703;48.154;17.126;2024-03-23T13:24:27;3.88;;;3.33;;
50737;SDS011;36703;48.154;17.126;2024-03-23T13:28:29;4.47;;;3.67;;
50737;SDS011;36703;48.154;17.126;2024-03-23T13:32:31;7.50;;;3.33;;
50737;SDS011;36703;48.154;17.126;2024-03-23T13:36:32;5.60;;;4.10;;
50737;SDS011;36703;48.154;17.126;2024-03-23T13:40:34;4.43;;;3.20;;
50737;SDS011;36703;48.154;17.126;2024-03-23T13:44:35;5.15;;;3.33;;
50737;SDS011;36703;48.154;17.126;2024-03-23T13:48:37;8.73;;;3.25;;
50737;SDS011;36703;48.154;17.126;2024-03-23T13:52:38;5.30;;;3.38;;
50737;SDS011;36703;48.154;17.126;2024-03-23T13:56:40;3.95;;;2.78;;
50737;SDS011;36703;48.154;17.126;2024-03-23T14:00:42;3.55;;;2.70;;
50737;SDS011;36703;48.154;17.126;2024-03-23T14:04:46;23.40;;;3.35;;
50737;SDS011;36703;48.154;17.126;2024-03-23T14:08:49;22.27;;;10.57;;
50737;SDS011;36703;48.154;17.126;2024-03-23T14:12:51;6.00;;;1.60;;
50737;SDS011;36703;48.154;17.126;2024-03-23T14:16:53;6.78;;;1.00;;
50737;SDS011;36703;48.154;17.126;2024-03-23T14:20:58;4.05;;;0.80;;
50737;SDS011;36703;48.154;17.126;2024-03-23T14:25:02;4.10;;;0.70;;
50737;SDS011;36703;48.154;17.126;2024-03-23T14:29:04;2.58;;;0.40;;
50737;SDS011;36703;48.154;17.126;2024-03-23T14:33:05;2.92;;;0.30;;
50737;SDS011;36703;48.154;17.126;2024-03-23T14:37:07;0.98;;;0.40;;
50737;SDS011;36703;48.154;17.126;2024-03-23T14:41:08;2.53;;;0.73;;
50737;SDS011;36703;48.154;17.126;2024-03-23T14:45:10;1.55;;;0.50;;
50737;SDS011;36703;48.154;17.126;2024-03-23T14:49:14;0.88;;;0.50;;
50737;SDS011;36703;48.154;17.126;2024-03-23T14:53:19;0.68;;;0.50;;
50737;SDS011;36703;48.154;17.126;2024-03-23T14:57:20;2.38;;;1.35;;
50737;SDS011;36703;48.154;17.126;2024-03-23T15:01:22;1.58;;;0.50;;
50737;SDS011;36703;48.154;17.126;2024-03-23T15:05:24;7.07;;;0.70;;
50737;SDS011;36703;48.154;17.126;2024-03-23T15:09:25;2.45;;;0.60;;
50737;SDS011;36703;48.154;17.126;2024-03-23T15:13:27;1.75;;;0.60;;
50737;SDS011;36703;48.154;17.126;2024-03-23T15:17:28;1.48;;;0.50;;
50737;SDS011;36703;48.154;17.126;2024-03-23T15:21:35;2.05;;;0.60;;
50737;SDS011;36703;48.154;17.126;2024-03-23T15:25:36;0.70;;;0.50;;
50737;SDS011;36703;48.154;17.126;2024-03-23T15:29:38;0.80;;;0.60;;
50737;SDS011;36703;48.154;17.126;2024-03-23T15:33:39;2.35;;;0.85;;
50737;SDS011;36703;48.154;17.126;2024-03-23T15:37:41;2.22;;;0.80;;
50737;SDS011;36703;48.154;17.126;2024-03-23T15:41:43;1.45;;;0.70;;
50737;SDS011;36703;48.154;17.126;2024-03-23T15:45:58;27.35;;;18.08;;
50737;SDS011;36703;48.154;17.126;2024-03-23T15:50:01;4.47;;;2.63;;
50737;SDS011;36703;48.154;17.126;2024-03-23T15:54:09;5.80;;;1.23;;
50737;SDS011;36703;48.154;17.126;2024-03-23T15:58:10;1.58;;;0.73;;
50737;SDS011;36703;48.154;17.126;2024-03-23T16:02:14;7.88;;;0.80;;
50737;SDS011;36703;48.154;17.126;2024-03-23T16:06:15;0.73;;;0.40;;
50737;SDS011;36703;48.154;17.126;2024-03-23T16:10:18;5.75;;;0.68;;
50737;SDS011;36703;48.154;17.126;2024-03-23T16:14:19;2.60;;;0.47;;
50737;SDS011;36703;48.154;17.126;2024-03-23T16:18:21;3.25;;;0.43;;
50737;SDS011;36703;48.154;17.126;2024-03-23T16:22:23;0.85;;;0.55;;
50737;SDS011;36703;48.154;17.126;2024-03-23T16:26:24;1.10;;;0.57;;
50737;SDS011;36703;48.154;17.126;2024-03-23T16:30:27;2.25;;;0.50;;
50737;SDS011;36703;48.154;17.126;2024-03-23T16:34:29;2.33;;;0.50;;
50737;SDS011;36703;48.154;17.126;2024-03-23T16:38:30;3.03;;;0.85;;
50737;SDS011;36703;48.154;17.126;2024-03-23T16:42:33;1.77;;;0.57;;
50737;SDS011;36703;48.154;17.126;2024-03-23T16:46:35;0.68;;;0.50;;
50737;SDS011;36703;48.154;17.126;2024-03-23T16:50:36;1.30;;;0.55;;
50737;SDS011;36703;48.154;17.126;2024-03-23T16:54:38;9.00;;;5.22;;
50737;SDS011;36703;48.154;17.126;2024-03-23T16:58:40;9.55;;;6.13;;
50737;SDS011;36703;48.154;17.126;2024-03-23T17:02:41;1.27;;;0.70;;
50737;SDS011;36703;48.154;17.126;2024-03-23T17:06:43;2.88;;;0.60;;
50737;SDS011;36703;48.154;17.126;2024-03-23T17:10:44;1.30;;;0.63;;
50737;SDS011;36703;48.154;17.126;2024-03-23T17:14:46;3.42;;;0.60;;
50737;SDS011;36703;48.154;17.126;2024-03-23T17:18:49;1.75;;;0.60;;
50737;SDS011;36703;48.154;17.126;2024-03-23T17:22:55;1.50;;;0.60;;
50737;SDS011;36703;48.154;17.126;2024-03-23T17:26:57;0.50;;;0.40;;
50737;SDS011;36703;48.154;17.126;2024-03-23T17:30:58;1.90;;;0.52;;
50737;SDS011;36703;48.154;17.126;2024-03-23T17:35:00;2.33;;;0.60;;
50737;SDS011;36703;48.154;17.126;2024-03-23T17:39:01;2.15;;;0.57;;
50737;SDS011;36703;48.154;17.126;2024-03-23T17:43:04;0.75;;;0.50;;
50737;SDS011;36703;48.154;17.126;2024-03-23T17:47:05;0.82;;;0.43;;
50737;SDS011;36703;48.154;17.126;2024-03-23T17:51:07;3.80;;;2.10;;
50737;SDS011;36703;48.154;17.126;2024-03-23T17:55:08;20.55;;;11.30;;
50737;SDS011;36703;48.154;17.126;2024-03-23T17:59:10;1.58;;;0.90;;
50737;SDS011;36703;48.154;17.126;2024-03-23T18:03:13;2.85;;;0.70;;
50737;SDS011;36703;48.154;17.126;2024-03-23T18:07:15;1.17;;;0.50;;
50737;SDS011;36703;48.154;17.126;2024-03-23T18:11:17;1.05;;;0.52;;
50737;SDS011;36703;48.154;17.126;2024-03-23T18:15:18;1.67;;;0.70;;
50737;SDS011;36703;48.154;17.126;2024-03-23T18:19:20;2.17;;;0.60;;
50737;SDS011;36703;48.154;17.126;2024-03-23T18:23:22;1.42;;;0.73;;
50737;SDS011;36703;48.154;17.126;2024-03-23T18:27:24;1.15;;;0.57;;
50737;SDS011;36703;48.154;17.126;2024-03-23T18:31:26;1.02;;;0.60;;
50737;SDS011;36703;48.154;17.126;2024-03-23T18:35:27;0.90;;;0.70;;
50737;SDS011;36703;48.154;17.126;2024-03-23T18:39:29;1.40;;;0.60;;
50737;SDS011;36703;48.154;17.126;2024-03-23T18:43:31;4.28;;;0.60;;
50737;SDS011;36703;48.154;17.126;2024-03-23T18:47:33;0.82;;;0.60;;
50737;SDS011;36703;48.154;17.126;2024-03-23T18:51:37;1.90;;;0.90;;
50737;SDS011;36703;48.154;17.126;2024-03-23T18:55:39;1.80;;;0.80;;
50737;SDS011;36703;48.154;17.126;2024-03-23T18:59:43;16.77;;;9.65;;
50737;SDS011;36703;48.154;17.126;2024-03-23T19:03:44;2.97;;;1.08;;
50737;SDS011;36703;48.154;17.126;2024-03-23T19:07:46;1.20;;;0.80;;
50737;SDS011;36703;48.154;17.126;2024-03-23T19:11:48;2.22;;;0.80;;
50737;SDS011;36703;48.154;17.126;2024-03-23T19:15:49;1.65;;;0.90;;
50737;SDS011;36703;48.154;17.126;2024-03-23T19:19:51;3.15;;;0.80;;
50737;SDS011;36703;48.154;17.126;2024-03-23T19:23:53;2.72;;;0.73;;
50737;SDS011;36703;48.154;17.126;2024-03-23T19:27:56;2.75;;;0.90;;
50737;SDS011;36703;48.154;17.126;2024-03-23T19:31:58;1.02;;;0.80;;
50737;SDS011;36703;48.154;17.126;2024-03-23T19:36:00;2.15;;;0.82;;
50737;SDS011;36703;48.154;17.126;2024-03-23T19:40:01;2.25;;;1.08;;
50737;SDS011;36703;48.154;17.126;2024-03-23T19:44:04;29.35;;;17.63;;
50737;SDS011;36703;48.154;17.126;2024-03-23T19:48:05;11.60;;;6.45;;
50737;SDS011;36703;48.154;17.126;2024-03-23T19:52:10;4.70;;;2.45;;
50737;SDS011;36703;48.154;17.126;2024-03-23T19:56:11;2.80;;;1.80;;
50737;SDS011;36703;48.154;17.126;2024-03-23T20:00:13;2.05;;;1.40;;
50737;SDS011;36703;48.154;17.126;2024-03-23T20:04:18;1.48;;;0.90;;
50737;SDS011;36703;48.154;17.126;2024-03-23T20:08:20;1.25;;;0.85;;
50737;SDS011;36703;48.154;17.126;2024-03-23T20:12:21;1.75;;;1.02;;
50737;SDS011;36703;48.154;17.126;2024-03-23T20:16:23;2.75;;;1.20;;
50737;SDS011;36703;48.154;17.126;2024-03-23T20:20:24;3.78;;;1.77;;
50737;SDS011;36703;48.154;17.126;2024-03-23T20:24:26;3.15;;;1.10;;
50737;SDS011;36703;48.154;17.126;2024-03-23T20:28:28;94.88;;;57.22;;
50737;SDS011;36703;48.154;17.126;2024-03-23T20:32:30;3.55;;;1.42;;
50737;SDS011;36703;48.154;17.126;2024-03-23T20:36:32;2.38;;;1.45;;
50737;SDS011;36703;48.154;17.126;2024-03-23T20:40:33;3.85;;;1.58;;
50737;SDS011;36703;48.154;17.126;2024-03-23T20:44:35;2.83;;;1.67;;
50737;SDS011;36703;48.154;17.126;2024-03-23T20:48:36;2.42;;;1.60;;
50737;SDS011;36703;48.154;17.126;2024-03-23T20:52:41;2.88;;;1.73;;
50737;SDS011;36703;48.154;17.126;2024-03-23T20:56:43;2.38;;;1.50;;
50737;SDS011;36703;48.154;17.126;2024-03-23T21:00:44;56.00;;;32.35;;
50737;SDS011;36703;48.154;17.126;2024-03-23T21:04:46;41.35;;;27.98;;
50737;SDS011;36703;48.154;17.126;2024-03-23T21:08:52;3.47;;;2.58;;
50737;SDS011;36703;48.154;17.126;2024-03-23T21:12:54;3.45;;;2.25;;
50737;SDS011;36703;48.154;17.126;2024-03-23T21:16:55;2.97;;;2.20;;
50737;SDS011;36703;48.154;17.126;2024-03-23T21:20:58;3.38;;;2.28;;
50737;SDS011;36703;48.154;17.126;2024-03-23T21:25:01;12.95;;;8.20;;
50737;SDS011;36703;48.154;17.126;2024-03-23T21:29:04;3.25;;;2.38;;
50737;SDS011;36703;48.154;17.126;2024-03-23T21:33:05;4.07;;;2.10;;
50737;SDS011;36703;48.154;17.126;2024-03-23T21:37:08;3.25;;;1.80;;
50737;SDS011;36703;48.154;17.126;2024-03-23T21:41:09;4.50;;;1.90;;
50737;SDS011;36703;48.154;17.126;2024-03-23T21:45:11;2.63;;;1.67;;
50737;SDS011;36703;48.154;17.126;2024-03-23T21:49:12;3.88;;;1.65;;
50737;SDS011;36703;48.154;17.126;2024-03-23T21:53:14;2.53;;;1.35;;
50737;SDS011;36703;48.154;17.126;2024-03-23T21:57:16;2.63;;;1.40;;
50737;SDS011;36703;48.154;17.126;2024-03-23T22:01:18;2.30;;;1.30;;
50737;SDS011;36703;48.154;17.126;2024-03-23T22:05:20;2.53;;;1.23;;
50737;SDS011;36703;48.154;17.126;2024-03-23T22:09:22;2.65;;;1.50;;
50737;SDS011;36703;48.154;17.126;2024-03-23T22:13:23;5.38;;;1.40;;
50737;SDS011;36703;48.154;17.126;2024-03-23T22:17:25;3.80;;;1.40;;
50737;SDS011;36703;48.154;17.126;2024-03-23T22:21:27;1.95;;;1.20;;
50737;SDS011;36703;48.154;17.126;2024-03-23T22:25:28;3.45;;;1.50;;
50737;SDS011;36703;48.154;17.126;2024-03-23T22:29:30;1.55;;;1.10;;
50737;SDS011;36703;48.154;17.126;2024-03-23T22:33:31;2.72;;;1.52;;
50737;SDS011;36703;48.154;17.126;2024-03-23T22:37:33;4.72;;;1.10;;
50737;SDS011;36703;48.154;17.126;2024-03-23T22:41:35;3.03;;;1.20;;
50737;SDS011;36703;48.154;17.126;2024-03-23T22:45:36;2.65;;;1.45;;
50737;SDS011;36703;48.154;17.126;2024-03-23T22:49:40;2.25;;;1.33;;
50737;SDS011;36703;48.154;17.126;2024-03-23T22:53:41;3.13;;;1.45;;
50737;SDS011;36703;48.154;17.126;2024-03-23T22:57:43;2.50;;;1.48;;
50737;SDS011;36703;48.154;17.126;2024-03-23T23:01:44;2.67;;;1.58;;
50737;SDS011;36703;48.154;17.126;2024-03-23T23:05:56;2.38;;;1.63;;
50737;SDS011;36703;48.154;17.126;2024-03-23T23:10:05;3.75;;;1.60;;
50737;SDS011;36703;48.154;17.126;2024-03-23T23:14:10;4.25;;;1.50;;
50737;SDS011;36703;48.154;17.126;2024-03-23T23:18:12;2.05;;;1.30;;
50737;SDS011;36703;48.154;17.126;2024-03-23T23:22:14;2.10;;;1.50;;
50737;SDS011;36703;48.154;17.126;2024-03-23T23:26:15;2.80;;;1.52;;
50737;SDS011;36703;48.154;17.126;2024-03-23T23:30:17;2.58;;;1.55;;
50737;SDS011;36703;48.154;17.126;2024-03-23T23:34:19;2.95;;;1.63;;
50737;SDS011;36703;48.154;17.126;2024-03-23T23:38:20;4.32;;;1.85;;
50737;SDS011;36703;48.154;17.126;2024-03-23T23:42:23;3.53;;;1.77;;
50737;SDS011;36703;48.154;17.126;2024-03-23T23:46:24;2.70;;;1.55;;
50737;SDS011;36703;48.154;17.126;2024-03-23T23:50:28;4.20;;;1.80;;
50737;SDS011;36703;48.154;17.126;2024-03-23T23:54:29;4.82;;;2.00;;
50737;SDS011;36703;48.154;17.126;2024-03-23T23:58:31;3.22;;;1.88;;
